Terminal Aerodrome Forecast
Issued by NWS

Home | Current Version | Previous Version | Text Only | Print | Product List | Glossary On
Versions: 1 2 3 4 5 6 7 8 9 10 11 12 13 14 15 16 17 18 19 20 21 22 23 24 25
261
FTUS41 KOKX 081127
TAFTEB
TAF
KTEB 081127Z 0812/0912 04011KT P6SM BKN030 BKN100
     FM081400 03012G18KT 5SM -SN BR BKN020 OVC040
     FM081600 02012G18KT 2SM -SN OVC015
     FM082000 02010KT 3SM -SN SCT007 OVC015
     FM082200 02006KT P6SM VCSH OVC025
     FM090300 03004KT P6SM VCSH BKN025=

USA.gov is the U.S. government's official web portal to all federal, state and local government web resources and services.